VEJS/IXW METAR and TAF weather

Enter ICAO airport designator
Station Type Date Time Source
VEJS METAR 2021/07/31 00:00 UTC NOAA

VEJS 310000Z 00000KT 2000 RA BKN015 OVC090 25/24 Q0998


Station Type Date Time Source
VEJS Decoded METAR 2021/07/31 00:00 UTC NOAA

Jamshedpur, India (VEJS) 22-49N 086-11E 142M
Jul 30, 2021 - 08:00 PM EDT / 2021.07.31 0000 UTC
Wind: Calm:0
Visibility: 1 mile(s):0
Sky conditions: overcast
Weather: rain
Temperature: 77 F (25 C)
Dew Point: 75 F (24 C)
Relative Humidity: 94%
Pressure (altimeter): 29.47 in. Hg (0998 hPa)
ob: VEJS 310000Z 00000KT 2000 RA BKN015 OVC090 25/24 Q0998
cycle: 0

Station Type Date Time Source
VEJS TAF 2009/11/01 09:00 UTC NOAA

TAF VEJS 010900Z 0112/0121 36004KT 2500 HZ FEW020 SCT025 SCT100
BECMG 0116/0118 00000KT 2000 HZ FEW018 SCT
BECMG 0119/0121 00000KT 1600 BR

Example: see airport list